Terminal Aerodrome Forecast
Issued by NWS

Home | Current Version | Previous Version | Text Only | Print | Product List | Glossary On
Versions: 1 2 3 4 5 6 7 8 9 10 11 12 13 14 15 16
000
FTUS45 KTFX 011700
TAFHVR
TAF
KHVR 011739Z 0118/0218 31011KT P6SM VCSH SCT030 OVC060
      TEMPO 0118/0120 30017G28KT -SHRA BKN020
     FM012000 29025G37KT P6SM VCSH SCT040 OVC070
     FM020200 28015KT P6SM SCT040 BKN070
     FM020400 30015KT P6SM VCSH SCT020 OVC040=

USA.gov is the U.S. government's official web portal to all federal, state and local government web resources and services.